Time;durP1;ratioP1;P1;durP2;ratioP2;P2;SDS_P1;SDS_P2;PMS_P1;PMS_P2;Temp;Humidity;BMP_temperature;BMP_pressure;BME280_temperature;BME280_humidity;BME280_pressure;Samples;Min_cycle;Max_cycle;Signal;HPM_P1;HPM_P2
2021/05/27 00:00:13;;;;;;;9.57;7.28;;;;;;;10.41;74.39;99500.94;5030203;28;20029;-68
2021/05/27 00:02:39;;;;;;;9.38;5.97;;;;;;;10.40;73.99;99495.75;5030323;28;20036;-69
2021/05/27 00:05:06;;;;;;;12.55;8.70;;;;;;;10.39;74.48;99499.34;5029302;28;20038;-69
2021/05/27 00:07:32;;;;;;;8.18;5.72;;;;;;;10.40;74.23;99507.13;5029504;28;20474;-68
2021/05/27 00:09:57;;;;;;;8.95;5.82;;;;;;;10.41;74.27;99503.59;5029534;28;20129;-68
2021/05/27 00:12:22;;;;;;;8.07;5.78;;;;;;;10.42;73.82;99500.00;5029946;28;20064;-68
2021/05/27 00:14:48;;;;;;;9.50;6.55;;;;;;;10.43;73.92;99506.13;5029758;28;20038;-68
2021/05/27 00:17:15;;;;;;;9.85;6.00;;;;;;;10.46;73.78;99511.22;5029001;28;20045;-69
2021/05/27 00:19:41;;;;;;;11.55;6.30;;;;;;;10.46;74.02;99505.94;5030429;28;20496;-69
2021/05/27 00:22:06;;;;;;;11.43;6.57;;;;;;;10.45;73.64;99512.16;5030048;28;20032;-70
2021/05/27 00:24:32;;;;;;;11.00;6.55;;;;;;;10.46;73.95;99513.84;5030134;28;20455;-68
2021/05/27 00:26:57;;;;;;;14.13;7.03;;;;;;;10.47;73.62;99511.16;5029817;28;20042;-70
2021/05/27 00:29:22;;;;;;;12.90;6.13;;;;;;;10.47;73.53;99511.16;5029976;28;20040;-69
2021/05/27 00:31:48;;;;;;;11.88;6.60;;;;;;;10.48;73.51;99510.25;5029795;28;20497;-70
2021/05/27 00:34:13;;;;;;;10.05;6.18;;;;;;;10.50;73.00;99516.25;5028380;28;20055;-69
2021/05/27 00:36:38;;;;;;;11.15;6.75;;;;;;;10.52;73.46;99524.94;5029349;28;20517;-69
2021/05/27 00:39:04;;;;;;;10.90;6.35;;;;;;;10.53;73.33;99525.78;5029381;28;20033;-69
2021/05/27 00:41:30;;;;;;;12.25;6.00;;;;;;;10.48;72.94;99523.41;5029508;28;20039;-69
2021/05/27 00:43:55;;;;;;;13.98;7.10;;;;;;;10.50;72.97;99521.53;5029411;28;20045;-68
2021/05/27 00:46:21;;;;;;;10.23;7.63;;;;;;;10.51;73.41;99522.41;5029290;28;20485;-68
2021/05/27 00:51:26;;;;;;;11.57;7.80;;;;;;;10.51;73.25;99520.59;5028859;28;20040;-67
2021/05/27 00:53:51;;;;;;;12.35;6.43;;;;;;;10.51;73.24;99528.50;5029043;28;20079;-66
2021/05/27 00:56:17;;;;;;;13.80;9.45;;;;;;;10.53;73.27;99536.31;5029011;28;20030;-68
2021/05/27 00:58:43;;;;;;;12.05;7.22;;;;;;;10.53;73.26;99534.56;5029614;28;20493;-68
2021/05/27 01:01:09;;;;;;;13.10;7.97;;;;;;;10.52;73.13;99538.13;5004502;28;20049;-67
2021/05/27 01:03:34;;;;;;;14.75;8.18;;;;;;;10.52;73.17;99524.09;5027654;28;20037;-67
2021/05/27 01:06:03;;;;;;;15.15;7.95;;;;;;;10.52;73.12;99527.56;5028772;28;20413;-69
2021/05/27 01:08:29;;;;;;;13.80;7.90;;;;;;;10.51;72.84;99530.31;5029782;28;20124;-68
2021/05/27 01:10:56;;;;;;;11.77;7.72;;;;;;;10.51;73.18;99531.16;5029411;28;20125;-68
2021/05/27 01:13:22;;;;;;;12.60;7.85;;;;;;;10.51;73.06;99540.84;5029424;28;20116;-68
2021/05/27 01:15:48;;;;;;;15.43;8.45;;;;;;;10.53;73.40;99534.56;5028747;28;20615;-68
2021/05/27 01:18:16;;;;;;;15.13;8.45;;;;;;;10.53;73.29;99537.19;5029498;28;20034;-68
2021/05/27 01:20:45;;;;;;;14.05;9.18;;;;;;;10.54;73.08;99532.78;5029873;28;20116;-69
2021/05/27 01:23:11;;;;;;;11.73;9.00;;;;;;;10.52;73.54;99530.22;5030067;28;20095;-68
2021/05/27 01:25:51;;;;;;;16.05;9.30;;;;;;;10.51;73.50;99539.06;5029991;28;20493;-69
2021/05/27 01:28:17;;;;;;;12.65;8.00;;;;;;;10.49;73.68;99538.28;5029695;28;20026;-68
2021/05/27 01:30:44;;;;;;;12.75;8.07;;;;;;;10.49;73.64;99540.91;5029671;28;20048;-68
2021/05/27 01:33:11;;;;;;;11.50;8.38;;;;;;;10.47;73.60;99534.88;5029352;28;20029;-69
2021/05/27 01:35:36;;;;;;;15.27;9.38;;;;;;;10.49;73.56;99537.44;5029177;28;20511;-70
2021/05/27 01:38:19;;;;;;;18.83;9.40;;;;;;;10.47;73.31;99545.41;5029448;28;20116;-69
2021/05/27 01:40:45;;;;;;;12.52;8.73;;;;;;;10.46;73.47;99538.44;5029724;28;20501;-69
2021/05/27 01:43:11;;;;;;;17.00;7.50;;;;;;;10.44;73.71;99548.22;5029539;28;20064;-68
2021/05/27 01:45:37;;;;;;;15.43;9.05;;;;;;;10.40;73.83;99548.47;5029788;28;20029;-68
2021/05/27 01:48:04;;;;;;;13.00;8.27;;;;;;;10.40;74.21;99545.81;5030430;28;20034;-68
2021/05/27 01:50:30;;;;;;;18.67;9.32;;;;;;;10.39;74.62;99542.34;5029850;28;20026;-70
2021/05/27 01:53:04;;;;;;;19.42;9.52;;;;;;;10.37;74.28;99538.94;5030334;28;20397;-69
2021/05/27 01:55:30;;;;;;;14.65;8.95;;;;;;;10.35;74.30;99543.41;5025871;28;20038;-68
2021/05/27 01:57:56;;;;;;;14.02;9.00;;;;;;;10.35;74.43;99545.22;5029446;28;20497;-69
2021/05/27 02:00:26;;;;;;;12.55;9.85;;;;;;;10.35;74.09;99551.31;5028895;28;20060;-69
2021/05/27 02:02:51;;;;;;;19.42;9.38;;;;;;;10.35;74.44;99546.06;5029913;28;20053;-69
2021/05/27 02:05:17;;;;;;;15.93;10.65;;;;;;;10.34;74.36;99552.28;5032211;28;20056;-67
2021/05/27 02:07:43;;;;;;;13.93;10.40;;;;;;;10.33;74.54;99553.19;5032592;28;20037;-69
2021/05/27 02:10:09;;;;;;;15.07;9.20;;;;;;;10.34;74.01;99560.19;5032371;28;20082;-68
2021/05/27 02:12:35;;;;;;;17.52;9.93;;;;;;;10.32;74.38;99556.75;5032328;28;20022;-70
2021/05/27 02:15:00;;;;;;;12.88;10.73;;;;;;;10.33;74.40;99553.19;5031474;28;20044;-68
2021/05/27 02:17:25;;;;;;;16.83;9.05;;;;;;;10.36;74.46;99552.16;5032198;28;20053;-68
2021/05/27 02:19:51;;;;;;;11.82;9.57;;;;;;;10.37;74.53;99552.09;5032292;28;20037;-67
2021/05/27 02:22:17;;;;;;;14.23;9.55;;;;;;;10.36;73.84;99555.69;5031984;28;20434;-68
2021/05/27 02:24:42;;;;;;;13.60;9.45;;;;;;;10.37;73.96;99557.38;5031631;28;20509;-68
2021/05/27 02:27:07;;;;;;;13.93;9.30;;;;;;;10.34;73.99;99554.91;5031817;28;20036;-68
2021/05/27 02:29:33;;;;;;;19.65;10.32;;;;;;;10.35;74.39;99545.22;5030054;28;20520;-68
2021/05/27 02:31:58;;;;;;;13.23;10.65;;;;;;;10.36;74.13;99552.16;5032292;28;20038;-68
2021/05/27 02:34:24;;;;;;;13.65;10.32;;;;;;;10.35;74.13;99551.31;5031993;28;20069;-67
2021/05/27 02:36:49;;;;;;;12.73;9.18;;;;;;;10.36;73.88;99558.31;5031630;28;20040;-67
2021/05/27 02:39:15;;;;;;;15.32;11.02;;;;;;;10.37;74.33;99559.16;5031944;28;20546;-68
2021/05/27 02:41:40;;;;;;;14.25;9.60;;;;;;;10.37;73.92;99561.81;5031587;28;20048;-67
2021/05/27 02:44:06;;;;;;;18.67;10.63;;;;;;;10.37;73.99;99557.38;5029930;28;20117;-67
2021/05/27 02:46:32;;;;;;;15.85;10.52;;;;;;;10.38;73.86;99563.50;5023043;28;20030;-68
2021/05/27 02:48:57;;;;;;;12.95;9.90;;;;;;;10.38;73.86;99561.69;5028382;28;20115;-70
2021/05/27 02:51:23;;;;;;;21.65;11.13;;;;;;;10.39;73.97;99560.78;5019855;28;20026;-68
2021/05/27 02:53:49;;;;;;;16.40;12.18;;;;;;;10.40;73.91;99569.53;5011307;28;20030;-67
2021/05/27 02:56:14;;;;;;;15.35;10.75;;;;;;;10.38;74.10;99559.06;5011351;28;20036;-68
2021/05/27 02:58:39;;;;;;;14.57;12.85;;;;;;;10.34;73.92;99557.53;5011651;28;20397;-68
2021/05/27 03:01:05;;;;;;;19.17;13.43;;;;;;;10.38;73.97;99555.59;5011476;28;20515;-68
2021/05/27 03:03:30;;;;;;;13.23;10.32;;;;;;;10.38;74.11;99559.06;5011215;28;20038;-68
2021/05/27 03:05:58;;;;;;;16.27;11.10;;;;;;;10.37;73.98;99557.38;5011622;28;20508;-68
2021/05/27 03:08:23;;;;;;;13.60;11.60;;;;;;;10.37;73.87;99559.16;5011294;28;20034;-68
2021/05/27 03:10:48;;;;;;;15.25;10.52;;;;;;;10.41;74.02;99569.47;5010176;28;20041;-67
2021/05/27 03:13:14;;;;;;;15.80;11.52;;;;;;;10.39;73.95;99571.31;5010527;28;20038;-69
2021/05/27 03:15:39;;;;;;;18.90;12.10;;;;;;;10.38;73.85;99568.75;5010760;28;20398;-68
2021/05/27 03:18:06;;;;;;;20.08;10.98;;;;;;;10.42;74.06;99565.03;5010748;28;20501;-69
2021/05/27 03:20:33;;;;;;;13.25;10.60;;;;;;;10.42;73.73;99565.88;5009614;28;20121;-69
2021/05/27 03:22:58;;;;;;;14.32;11.25;;;;;;;10.42;74.31;99567.69;5011328;28;20054;-69
2021/05/27 03:25:24;;;;;;;13.27;11.13;;;;;;;10.41;73.78;99571.22;5010838;28;20057;-69
2021/05/27 03:27:49;;;;;;;14.55;10.98;;;;;;;10.38;73.93;99571.41;5011131;28;20435;-68
2021/05/27 03:30:16;;;;;;;22.42;12.07;;;;;;;10.39;74.08;99573.97;5010584;28;20042;-69
2021/05/27 03:32:41;;;;;;;14.02;10.65;;;;;;;10.39;74.04;99568.69;5010593;28;20048;-67
2021/05/27 03:35:11;;;;;;;13.63;10.05;;;;;;;10.41;74.13;99569.47;5010543;28;20113;-67
2021/05/27 03:37:37;;;;;;;13.80;11.15;;;;;;;10.40;73.75;99573.00;5010816;28;20410;-69
2021/05/27 03:40:13;;;;;;;17.63;11.15;;;;;;;10.39;73.69;99570.47;5010905;28;20138;-69
2021/05/27 03:42:41;;;;;;;12.90;10.48;;;;;;;10.38;74.02;99568.75;5010294;28;20036;-69
2021/05/27 03:45:09;;;;;;;14.35;11.90;;;;;;;10.39;74.12;99576.59;5010592;28;20034;-69
2021/05/27 03:47:35;;;;;;;14.35;11.55;;;;;;;10.40;73.91;99575.66;5011101;28;20478;-68
2021/05/27 03:50:00;;;;;;;11.85;10.60;;;;;;;10.40;74.08;99572.19;5009698;28;20117;-67
2021/05/27 03:52:26;;;;;;;13.48;11.45;;;;;;;10.38;74.50;99572.25;5010952;28;20069;-67
2021/05/27 03:54:51;;;;;;;14.95;12.18;;;;;;;10.37;74.18;99567.91;5010608;28;20104;-69
2021/05/27 03:57:16;;;;;;;15.05;10.93;;;;;;;10.41;74.43;99579.13;5010271;28;20030;-67
2021/05/27 04:02:25;;;;;;;20.67;13.07;;;;;;;10.36;74.20;99581.16;5010062;28;20036;-69
2021/05/27 04:07:35;;;;;;;20.23;13.15;;;;;;;10.34;74.54;99586.53;5010469;28;20095;-70
2021/05/27 04:10:00;;;;;;;22.05;13.10;;;;;;;10.32;74.42;99593.66;5012807;28;20124;-69
2021/05/27 04:15:23;;;;;;;22.67;12.02;;;;;;;10.35;74.13;99593.50;5029732;28;20508;-69
2021/05/27 04:17:53;;;;;;;15.32;12.20;;;;;;;10.38;74.55;99593.31;5029851;28;20044;-69
2021/05/27 04:20:19;;;;;;;15.95;13.18;;;;;;;10.39;74.15;99595.03;5028834;28;20060;-68
2021/05/27 04:22:47;;;;;;;16.25;12.25;;;;;;;10.40;74.25;99598.53;5029846;28;20041;-68
2021/05/27 04:25:13;;;;;;;23.02;15.05;;;;;;;10.39;73.97;99599.47;5027494;28;20087;-69
2021/05/27 04:27:39;;;;;;;17.85;13.13;;;;;;;10.38;74.05;99593.31;5029274;28;20025;-68
2021/05/27 04:30:16;;;;;;;18.95;11.73;;;;;;;10.41;74.04;99594.94;5030242;28;20033;-67
2021/05/27 04:35:33;;;;;;;14.25;11.05;;;;;;;10.44;73.86;99605.34;5029554;28;20039;-69
2021/05/27 04:38:02;;;;;;;16.38;13.05;;;;;;;10.44;74.00;99606.19;5029663;28;20493;-68
2021/05/27 04:40:28;;;;;;;19.00;13.88;;;;;;;10.41;74.00;99600.22;5029570;28;20088;-68
2021/05/27 04:42:54;;;;;;;20.80;11.93;;;;;;;10.42;74.06;99605.41;5029347;28;20038;-68
2021/05/27 04:45:21;;;;;;;20.90;12.93;;;;;;;10.46;73.83;99606.97;5027396;28;20500;-69
2021/05/27 04:47:46;;;;;;;20.38;11.60;;;;;;;10.45;73.73;99614.94;5029534;28;20060;-69
2021/05/27 04:50:12;;;;;;;14.00;12.50;;;;;;;10.44;73.65;99619.38;5028961;28;20056;-67
2021/05/27 04:52:38;;;;;;;16.08;11.60;;;;;;;10.42;73.77;99615.13;5029234;28;20034;-69
2021/05/27 04:55:06;;;;;;;25.63;14.20;;;;;;;10.47;74.09;99613.94;5029403;28;20377;-67
2021/05/27 04:57:31;;;;;;;17.73;12.07;;;;;;;10.47;74.18;99619.22;5029324;28;20037;-68
2021/05/27 04:59:57;;;;;;;18.92;12.32;;;;;;;10.50;73.61;99615.56;5027784;28;20523;-68
2021/05/27 05:02:22;;;;;;;27.05;13.73;;;;;;;10.51;73.82;99620.75;5029247;28;20401;-69
2021/05/27 05:04:48;;;;;;;19.27;13.93;;;;;;;10.51;73.74;99625.19;5029438;28;20120;-68
2021/05/27 05:07:13;;;;;;;16.25;12.38;;;;;;;10.48;73.86;99635.88;5011349;28;20109;-70
2021/05/27 05:09:38;;;;;;;22.13;13.15;;;;;;;10.44;74.11;99622.00;5029488;28;20029;-68
2021/05/27 05:12:04;;;;;;;16.02;11.95;;;;;;;10.42;73.74;99633.56;5029649;28;20037;-68
2021/05/27 05:14:29;;;;;;;20.58;13.38;;;;;;;10.42;73.82;99625.66;5029387;28;20411;-69
2021/05/27 05:16:55;;;;;;;14.88;12.52;;;;;;;10.41;74.08;99635.34;5028722;28;20037;-68
2021/05/27 05:19:21;;;;;;;18.10;13.15;;;;;;;10.42;74.14;99633.56;5028996;28;20033;-68
2021/05/27 05:21:46;;;;;;;18.40;12.40;;;;;;;10.40;73.70;99633.63;5029102;28;20378;-68
2021/05/27 05:24:12;;;;;;;15.50;11.25;;;;;;;10.43;73.92;99637.88;5029027;28;20049;-67
2021/05/27 05:26:37;;;;;;;18.88;11.60;;;;;;;10.44;73.37;99639.63;5028961;28;20076;-68
2021/05/27 05:29:03;;;;;;;23.23;13.13;;;;;;;10.44;72.96;99636.97;5029544;28;20049;-68
2021/05/27 05:31:28;;;;;;;14.57;11.60;;;;;;;10.48;73.63;99636.75;5028406;28;20030;-68
2021/05/27 05:33:55;;;;;;;20.40;11.73;;;;;;;10.56;73.52;99635.47;5026772;28;20089;-69
2021/05/27 05:36:22;;;;;;;21.35;11.95;;;;;;;10.61;73.18;99642.22;5028767;28;20068;-68
2021/05/27 05:38:47;;;;;;;17.60;12.38;;;;;;;10.67;72.75;99638.41;5032537;28;20402;-68
2021/05/27 05:41:13;;;;;;;22.40;11.75;;;;;;;10.75;72.58;99638.84;5032829;28;20116;-68
2021/05/27 05:43:38;;;;;;;18.55;11.65;;;;;;;10.74;72.08;99645.09;5032789;28;20167;-68
2021/05/27 05:46:03;;;;;;;17.88;11.32;;;;;;;10.71;71.79;99648.72;5033006;28;20161;-69
2021/05/27 05:48:29;;;;;;;17.48;9.70;;;;;;;10.75;72.29;99636.22;5033199;28;20026;-68
2021/05/27 05:50:57;;;;;;;16.00;11.55;;;;;;;10.77;72.09;99647.53;5032599;28;20493;-69
2021/05/27 05:53:24;;;;;;;18.73;12.75;;;;;;;10.79;72.06;99647.47;5031192;28;20116;-69
2021/05/27 05:55:53;;;;;;;15.80;12.18;;;;;;;10.78;72.73;99644.00;5032248;28;20045;-69
2021/05/27 05:58:20;;;;;;;14.57;10.82;;;;;;;10.79;72.37;99640.41;5032716;28;20444;-69
2021/05/27 06:00:45;;;;;;;19.40;11.35;;;;;;;10.80;72.57;99647.38;5032611;28;20045;-70
2021/05/27 06:03:11;;;;;;;15.77;12.00;;;;;;;10.83;72.84;99647.25;5032993;28;20040;-69
2021/05/27 06:05:36;;;;;;;16.27;12.27;;;;;;;10.84;72.82;99648.09;5032444;28;20038;-69
2021/05/27 06:08:03;;;;;;;20.48;12.45;;;;;;;10.82;72.68;99645.53;5033514;28;20037;-70
2021/05/27 06:10:28;;;;;;;17.17;13.10;;;;;;;10.81;72.70;99653.53;5032465;28;20037;-70
2021/05/27 06:12:56;;;;;;;19.65;12.02;;;;;;;10.79;72.95;99656.25;5032665;28;20030;-68
2021/05/27 06:15:22;;;;;;;18.15;11.98;;;;;;;10.74;72.72;99656.47;5031456;28;20037;-69
2021/05/27 06:17:48;;;;;;;17.20;12.68;;;;;;;10.77;73.12;99660.72;5032424;28;20045;-68
2021/05/27 06:20:14;;;;;;;18.25;12.68;;;;;;;10.79;72.95;99655.38;5032935;28;20401;-70
2021/05/27 06:22:40;;;;;;;17.83;12.30;;;;;;;10.81;73.56;99667.56;5032471;28;20057;-69
2021/05/27 06:25:06;;;;;;;20.52;13.20;;;;;;;10.78;73.58;99665.09;5032593;28;20042;-69
2021/05/27 06:27:32;;;;;;;19.30;12.23;;;;;;;10.76;73.62;99669.59;5033439;28;20048;-70
2021/05/27 06:29:57;;;;;;;18.60;12.95;;;;;;;10.69;73.75;99670.84;5032947;28;20030;-68
2021/05/27 06:32:23;;;;;;;17.85;11.90;;;;;;;10.65;74.47;99661.38;5032752;28;20146;-70
2021/05/27 06:34:52;;;;;;;18.90;12.93;;;;;;;10.57;74.64;99672.31;5031723;28;20666;-69
2021/05/27 06:37:18;;;;;;;18.10;13.07;;;;;;;10.50;75.95;99670.91;5031270;28;20063;-70
2021/05/27 06:39:44;;;;;;;18.20;13.57;;;;;;;10.45;76.13;99673.78;5031839;28;20100;-69
2021/05/27 06:42:09;;;;;;;15.60;12.55;;;;;;;10.43;76.37;99672.16;5031666;28;20037;-67
2021/05/27 06:44:35;;;;;;;16.42;11.55;;;;;;;10.39;75.66;99670.63;5032164;28;20029;-68
2021/05/27 06:47:01;;;;;;;16.83;13.68;;;;;;;10.44;76.04;99680.00;5032086;28;20048;-69
2021/05/27 06:49:26;;;;;;;17.77;13.48;;;;;;;10.55;76.09;99675.94;5030019;28;20504;-68
2021/05/27 06:51:55;;;;;;;17.25;12.32;;;;;;;10.62;74.94;99680.00;5031815;28;20088;-67
2021/05/27 06:54:21;;;;;;;16.27;13.35;;;;;;;10.70;75.50;99678.66;5031197;28;20083;-68
2021/05/27 06:56:46;;;;;;;21.50;11.90;;;;;;;10.78;75.47;99682.69;5029176;28;20030;-68
2021/05/27 06:59:11;;;;;;;22.02;12.38;;;;;;;10.84;75.33;99685.00;5030650;28;20061;-69
2021/05/27 07:01:37;;;;;;;15.77;12.13;;;;;;;10.87;74.58;99679.56;5031096;28;20040;-68
2021/05/27 07:04:02;;;;;;;14.38;10.48;;;;;;;10.83;74.00;99683.28;5031597;28;20033;-70
2021/05/27 07:06:27;;;;;;;16.65;12.77;;;;;;;10.85;73.77;99692.81;5030827;28;20037;-68
2021/05/27 07:08:53;;;;;;;16.00;11.63;;;;;;;10.94;74.22;99691.50;5031414;28;20030;-67
2021/05/27 07:11:18;;;;;;;21.08;13.15;;;;;;;10.96;73.96;99695.75;5030960;28;20032;-70
2021/05/27 07:13:43;;;;;;;17.20;11.35;;;;;;;11.03;73.98;99685.75;5031103;28;20041;-67
2021/05/27 07:16:09;;;;;;;23.45;12.30;;;;;;;11.14;73.57;99691.28;5030722;28;20045;-68
2021/05/27 07:18:34;;;;;;;21.55;11.85;;;;;;;11.23;73.58;99687.34;5031325;28;20516;-69
2021/05/27 07:20:59;;;;;;;29.48;11.13;;;;;;;11.31;72.17;99687.75;5031060;28;20029;-67
2021/05/27 07:23:25;;;;;;;14.40;10.55;;;;;;;11.39;72.20;99690.84;5031068;28;20124;-69
2021/05/27 07:25:50;;;;;;;14.27;10.73;;;;;;;11.48;72.03;99686.84;5030008;28;20037;-69
2021/05/27 07:28:16;;;;;;;16.65;11.32;;;;;;;11.59;71.22;99692.41;5030720;28;20030;-69
2021/05/27 07:30:42;;;;;;;16.83;9.70;;;;;;;11.65;70.94;99696.50;5030804;28;20469;-70
2021/05/27 07:33:07;;;;;;;15.88;9.57;;;;;;;11.72;70.90;99695.22;5030568;28;20120;-68
2021/05/27 07:35:32;;;;;;;11.40;8.43;;;;;;;11.78;70.94;99688.72;5030759;28;20067;-69
2021/05/27 07:37:59;;;;;;;15.68;10.50;;;;;;;11.72;70.43;99691.72;5031344;28;20555;-69
2021/05/27 07:40:25;;;;;;;14.63;9.07;;;;;;;11.69;70.62;99691.88;5030782;28;20087;-69
2021/05/27 07:42:51;;;;;;;16.27;9.90;;;;;;;11.63;70.67;99701.00;5031244;28;20065;-68
2021/05/27 07:45:16;;;;;;;15.00;11.10;;;;;;;11.53;71.05;99700.66;5028855;28;20543;-68
2021/05/27 07:47:43;;;;;;;24.02;13.18;;;;;;;11.52;71.83;99700.75;5030669;28;20043;-68
2021/05/27 07:50:09;;;;;;;18.98;11.73;;;;;;;11.52;71.65;99698.97;5030408;28;20029;-67
2021/05/27 07:52:35;;;;;;;20.90;10.40;;;;;;;11.53;72.10;99707.72;5031372;28;20083;-67
2021/05/27 07:55:00;;;;;;;17.40;12.38;;;;;;;11.49;72.25;99695.63;5029027;28;20037;-69
2021/05/27 07:57:26;;;;;;;16.95;11.85;;;;;;;11.43;72.27;99698.59;5030267;28;20041;-68
2021/05/27 07:59:51;;;;;;;16.38;11.65;;;;;;;11.40;72.76;99699.63;5029789;28;20038;-67
2021/05/27 08:02:16;;;;;;;16.17;10.90;;;;;;;11.40;73.10;99702.25;5029536;28;20691;-68
2021/05/27 08:04:42;;;;;;;14.52;10.57;;;;;;;11.34;73.03;99700.78;5028208;28;20044;-70
2021/05/27 08:07:12;;;;;;;14.57;9.85;;;;;;;11.32;73.28;99712.34;5029745;28;20495;-69
2021/05/27 08:09:38;;;;;;;14.25;12.13;;;;;;;11.25;72.91;99703.94;5030233;28;20100;-69
2021/05/27 08:12:05;;;;;;;15.98;12.40;;;;;;;11.25;73.19;99710.97;5030747;28;20037;-68
2021/05/27 08:14:30;;;;;;;15.98;12.07;;;;;;;11.25;73.21;99703.94;5030096;28;20041;-71
2021/05/27 08:16:56;;;;;;;16.20;11.80;;;;;;;11.29;73.54;99715.16;5012941;28;20480;-70
2021/05/27 08:19:21;;;;;;;17.15;12.20;;;;;;;11.38;73.28;99715.53;5021681;28;20135;-68
2021/05/27 08:21:47;;;;;;;19.42;14.80;;;;;;;11.41;72.75;99721.59;5022131;28;20042;-67
2021/05/27 08:24:12;;;;;;;15.23;11.45;;;;;;;11.44;73.25;99714.34;5014280;28;20053;-67
2021/05/27 08:26:38;;;;;;;17.95;13.20;;;;;;;11.50;72.88;99710.53;5004232;28;20042;-67
2021/05/27 08:29:03;;;;;;;16.35;12.48;;;;;;;11.57;73.32;99717.19;5004791;28;20051;-69
2021/05/27 08:31:30;;;;;;;17.20;13.38;;;;;;;11.54;73.37;99714.69;4996006;28;20795;-68
2021/05/27 08:33:55;;;;;;;20.23;12.00;;;;;;;11.43;73.01;99717.94;5016923;28;20505;-68
2021/05/27 08:36:20;;;;;;;16.20;12.23;;;;;;;11.39;73.56;99719.91;5022201;28;20187;-67
2021/05/27 08:38:46;;;;;;;21.83;14.18;;;;;;;11.41;74.43;99722.44;5023926;28;20049;-68
2021/05/27 08:41:13;;;;;;;23.60;14.00;;;;;;;11.33;73.95;99722.00;5022843;28;20041;-68
2021/05/27 08:43:39;;;;;;;24.83;13.60;;;;;;;11.32;74.83;99720.28;5022179;28;20029;-68
2021/05/27 08:46:05;;;;;;;17.25;12.55;;;;;;;11.26;74.49;99726.75;5003595;28;20045;-68
2021/05/27 08:48:31;;;;;;;18.67;13.52;;;;;;;11.26;75.22;99750.50;5022293;28;20179;-69
2021/05/27 08:50:59;;;;;;;29.77;16.63;;;;;;;11.34;75.84;99748.28;5024248;28;20037;-70
2021/05/27 08:53:25;;;;;;;15.98;12.88;;;;;;;11.41;75.13;99755.91;5024068;28;20061;-67
2021/05/27 08:55:51;;;;;;;17.35;13.98;;;;;;;11.65;74.76;99751.09;5023639;28;20779;-66
2021/05/27 08:58:17;;;;;;;18.00;12.80;;;;;;;11.94;73.28;99753.03;5024239;28;20033;-68
2021/05/27 09:00:43;;;;;;;15.85;12.00;;;;;;;12.09;72.63;99753.13;5024094;28;20493;-69
2021/05/27 09:03:10;;;;;;;16.67;11.90;;;;;;;12.07;71.99;99755.84;5023170;28;20049;-68
2021/05/27 09:05:37;;;;;;;13.27;10.50;;;;;;;12.08;70.54;99761.97;5023689;28;20045;-67
2021/05/27 09:08:07;;;;;;;15.45;9.88;;;;;;;12.13;70.49;99762.56;5023395;28;20037;-68
2021/05/27 09:10:42;;;;;;;16.63;9.80;;;;;;;12.32;69.87;99765.88;5023049;28;20044;-67
2021/05/27 09:13:09;;;;;;;15.55;9.60;;;;;;;12.39;69.97;99771.66;5025990;28;20556;-68
2021/05/27 09:15:35;;;;;;;14.32;9.45;;;;;;;12.41;67.60;99785.66;5025750;28;20033;-68
2021/05/27 09:18:00;;;;;;;12.18;9.02;;;;;;;12.53;67.93;99777.03;5021320;28;20152;-67
2021/05/27 09:20:27;;;;;;;16.38;8.57;;;;;;;12.64;68.71;99782.53;5024175;28;20049;-68
2021/05/27 09:23:09;;;;;;;12.95;8.43;;;;;;;12.77;66.54;99777.38;5010058;28;20041;-68
2021/05/27 09:25:37;;;;;;;13.45;8.30;;;;;;;12.74;65.83;99782.00;5028173;28;20041;-67
2021/05/27 09:28:04;;;;;;;13.88;7.07;;;;;;;12.74;66.09;99774.91;5028061;28;20110;-68
2021/05/27 09:30:30;;;;;;;12.65;8.23;;;;;;;12.72;66.42;99790.03;5027087;28;20033;-68
2021/05/27 09:32:56;;;;;;;10.07;6.65;;;;;;;12.70;66.11;99786.63;5026304;28;20037;-68
2021/05/27 09:35:22;;;;;;;14.13;7.97;;;;;;;12.64;66.72;99781.69;5025301;28;20040;-68
2021/05/27 09:37:52;;;;;;;11.57;7.93;;;;;;;12.58;65.95;99784.69;5026089;28;20115;-62
2021/05/27 09:40:31;;;;;;;9.95;8.32;;;;;;;12.51;66.60;99791.28;5027408;28;20099;-60
2021/05/27 09:42:58;;;;;;;14.98;9.23;;;;;;;12.45;66.53;99790.69;5027195;28;20137;-63
2021/05/27 09:45:24;;;;;;;11.95;8.73;;;;;;;12.48;66.85;99794.06;5021736;28;20037;-61
2021/05/27 09:47:50;;;;;;;11.57;7.88;;;;;;;12.49;67.87;99788.72;5025449;28;20045;-61
2021/05/27 09:50:15;;;;;;;12.95;8.93;;;;;;;12.43;67.72;99789.91;5027260;28;20037;-63
2021/05/27 09:52:46;;;;;;;11.20;8.50;;;;;;;12.35;68.08;99805.34;5027078;28;20053;-62
2021/05/27 09:55:19;;;;;;;13.25;6.90;;;;;;;12.28;68.00;99816.34;5026802;28;20143;-58
2021/05/27 09:57:47;;;;;;;11.60;7.15;;;;;;;12.24;68.64;99805.09;5014568;28;20136;-62
2021/05/27 10:00:21;;;;;;;15.38;9.35;;;;;;;12.15;68.25;99801.19;5025577;28;20128;-63
2021/05/27 10:02:47;;;;;;;11.80;6.88;;;;;;;12.10;67.88;99813.78;5026607;28;20071;-63
2021/05/27 10:05:14;;;;;;;11.73;7.30;;;;;;;12.07;69.04;99811.31;5026239;28;20695;-63
2021/05/27 10:07:50;;;;;;;12.55;7.57;;;;;;;12.06;68.69;99814.91;5026762;28;20102;-63
2021/05/27 10:10:19;;;;;;;12.65;7.78;;;;;;;12.05;69.41;99815.84;5024772;28;20078;-63
2021/05/27 10:12:47;;;;;;;13.30;6.30;;;;;;;11.99;68.77;99818.81;5023434;28;20571;-64
2021/05/27 10:15:16;;;;;;;10.73;8.60;;;;;;;12.00;68.54;99828.44;5026008;28;20040;-63
2021/05/27 10:17:42;;;;;;;11.45;6.95;;;;;;;12.08;68.95;99822.75;5026457;28;20331;-63
2021/05/27 10:20:13;;;;;;;12.75;7.38;;;;;;;12.14;67.63;99825.91;5026039;28;20436;-63
2021/05/27 10:22:39;;;;;;;12.57;9.35;;;;;;;12.14;68.98;99825.91;5025233;28;20432;-64
2021/05/27 10:25:07;;;;;;;13.65;8.35;;;;;;;12.13;68.11;99834.75;5024223;28;20045;-63
2021/05/27 10:27:33;;;;;;;9.13;7.20;;;;;;;12.11;68.05;99828.72;5024188;28;20125;-64
2021/05/27 10:29:58;;;;;;;12.02;7.38;;;;;;;12.16;67.44;99825.84;5022390;28;20049;-64
2021/05/27 10:32:26;;;;;;;8.82;7.03;;;;;;;12.24;66.95;99824.47;5021251;28;20457;-63
2021/05/27 10:34:52;;;;;;;14.48;7.88;;;;;;;12.36;66.62;99827.38;5007240;28;20038;-63
2021/05/27 10:37:37;;;;;;;9.73;6.50;;;;;;;12.46;67.10;99824.09;5006985;28;20045;-64
2021/05/27 10:40:12;;;;;;;11.38;7.40;;;;;;;12.55;66.70;99817.47;5008356;28;20409;-64
2021/05/27 10:43:04;;;;;;;14.30;7.97;;;;;;;12.70;66.68;99817.50;5007551;28;20042;-61
2021/05/27 10:45:36;;;;;;;11.38;6.82;;;;;;;12.76;66.03;99823.31;5022695;28;20153;-65
2021/05/27 10:48:14;;;;;;;12.05;7.13;;;;;;;12.74;65.89;99817.25;5025233;28;20139;-64
2021/05/27 10:50:54;;;;;;;10.95;7.38;;;;;;;12.67;65.93;99813.25;5025473;28;20091;-63
2021/05/27 10:53:44;;;;;;;11.57;7.10;;;;;;;12.74;66.27;99817.25;5024915;28;20533;-64
2021/05/27 10:56:37;;;;;;;17.05;9.18;;;;;;;12.86;66.28;99810.41;5023461;28;20067;-64
2021/05/27 10:59:07;;;;;;;14.98;7.30;;;;;;;13.05;65.74;99810.19;5017444;28;20153;-70
2021/05/27 11:01:33;;;;;;;9.48;7.00;;;;;;;13.16;64.26;99813.03;5020252;28;20041;-69
2021/05/27 11:04:07;;;;;;;11.95;7.95;;;;;;;13.21;63.92;99810.09;5017255;28;20120;-69
2021/05/27 11:06:39;;;;;;;9.93;6.63;;;;;;;13.35;64.02;99812.81;5026253;28;20041;-68
2021/05/27 11:09:08;;;;;;;15.32;7.97;;;;;;;13.49;62.96;99810.19;5026553;28;20651;-70
2021/05/27 11:11:40;;;;;;;11.52;7.93;;;;;;;13.69;62.68;99824.84;5026273;28;20068;-69
2021/05/27 11:14:27;;;;;;;12.02;7.50;;;;;;;13.88;62.13;99813.97;5026189;28;20499;-69
2021/05/27 11:22:27;;;;;;;10.85;7.00;;;;;;;14.44;60.70;99799.84;5026513;28;20407;-68
2021/05/27 11:27:56;;;;;;;19.90;6.78;;;;;;;14.63;60.29;99800.38;5020993;28;20041;-68
2021/05/27 11:30:30;;;;;;;9.95;7.40;;;;;;;14.99;59.19;99798.88;5004498;28;20042;-68
2021/05/27 11:33:05;;;;;;;14.40;7.13;;;;;;;15.28;57.10;99798.69;5004764;28;20046;-67
2021/05/27 11:35:42;;;;;;;8.93;7.40;;;;;;;15.46;56.17;99797.44;5004422;28;20034;-70
2021/05/27 11:38:22;;;;;;;11.57;6.65;;;;;;;15.52;56.02;99802.31;5022827;28;20496;-69
2021/05/27 11:40:52;;;;;;;11.32;6.60;;;;;;;15.61;55.16;99795.53;5024498;28;20056;-68
2021/05/27 11:43:27;;;;;;;10.05;6.40;;;;;;;15.63;55.09;99789.16;5011877;28;20060;-69